Time;durP1;ratioP1;P1;durP2;ratioP2;P2;SDS_P1;SDS_P2;PMS_P1;PMS_P2;Temp;Humidity;BMP_temperature;BMP_pressure;BME280_temperature;BME280_humidity;BME280_pressure;Samples;Min_cycle;Max_cycle;Signal;HPM_P1;HPM_P2
2022/12/22 04:02:00;;;;;;;2.20;1.00;;;10.40;90.90;;;;;;5421522;23;20997;-75
2022/12/22 04:04:27;;;;;;;1.50;0.80;;;10.50;90.70;;;;;;5014218;28;20455;-75
2022/12/22 04:06:54;;;;;;;1.70;0.90;;;10.40;90.60;;;;;;5014049;28;20503;-75
2022/12/22 04:09:23;;;;;;;2.10;0.97;;;10.40;91.20;;;;;;5014148;28;20863;-75
2022/12/22 04:14:34;;;;;;;3.80;0.90;;;10.40;91.20;;;;;;5014768;28;20408;-71
2022/12/22 04:17:03;;;;;;;2.00;1.07;;;10.50;90.90;;;;;;5013608;28;20996;-72
2022/12/22 04:19:29;;;;;;;2.00;0.87;;;10.60;90.60;;;;;;5013928;28;20448;-72
2022/12/22 04:21:56;;;;;;;2.47;1.43;;;10.60;90.20;;;;;;5013758;28;20468;-73
2022/12/22 04:24:23;;;;;;;1.80;0.70;;;10.60;90.40;;;;;;5013489;28;20859;-72
2022/12/22 04:26:49;;;;;;;2.03;0.90;;;10.60;90.00;;;;;;5013828;28;20444;-73
2022/12/22 04:29:16;;;;;;;3.27;1.00;;;10.60;90.50;;;;;;5013818;28;20448;-73
2022/12/22 04:31:43;;;;;;;1.90;0.80;;;10.60;90.20;;;;;;5013629;28;20471;-74
2022/12/22 04:34:11;;;;;;;1.93;1.03;;;10.60;90.50;;;;;;5013695;28;20870;-74
2022/12/22 04:36:38;;;;;;;1.90;0.90;;;10.50;90.30;;;;;;5013695;28;20444;-74
2022/12/22 04:39:04;;;;;;;1.70;0.90;;;10.60;90.30;;;;;;5013610;28;20476;-74
2022/12/22 04:41:31;;;;;;;2.10;0.90;;;10.60;90.00;;;;;;5013618;28;20514;-74
2022/12/22 04:43:58;;;;;;;1.60;0.87;;;10.60;90.00;;;;;;5013585;28;20503;-73
2022/12/22 04:46:24;;;;;;;2.43;0.90;;;10.50;89.90;;;;;;5013593;28;20483;-73
2022/12/22 04:48:51;;;;;;;2.10;0.97;;;10.50;89.80;;;;;;5013618;28;20449;-74
2022/12/22 04:51:19;;;;;;;4.70;1.30;;;10.40;89.90;;;;;;5013471;28;20464;-73
2022/12/22 04:53:46;;;;;;;1.80;0.90;;;10.40;90.10;;;;;;5013231;28;20988;-74
2022/12/22 04:56:12;;;;;;;2.27;0.90;;;10.50;89.90;;;;;;5013215;28;21023;-74
2022/12/22 04:58:39;;;;;;;2.10;1.00;;;10.50;89.80;;;;;;5013046;28;20902;-74
2022/12/22 05:01:10;;;;;;;1.57;0.80;;;10.30;90.50;;;;;;5015056;28;20993;-74
2022/12/22 05:03:37;;;;;;;1.70;0.70;;;10.30;90.60;;;;;;5017529;28;20436;-73
2022/12/22 05:06:04;;;;;;;1.90;1.10;;;10.30;90.50;;;;;;5017440;28;20498;-74
2022/12/22 05:08:32;;;;;;;1.57;0.87;;;10.30;90.50;;;;;;5017432;28;20514;-73
2022/12/22 05:10:59;;;;;;;1.90;1.10;;;10.30;90.60;;;;;;5017368;28;20468;-74
2022/12/22 05:13:26;;;;;;;1.90;0.80;;;10.30;90.80;;;;;;5017323;28;20452;-73
2022/12/22 05:15:52;;;;;;;3.87;1.47;;;10.30;91.00;;;;;;5017299;28;20514;-74
2022/12/22 05:18:19;;;;;;;1.90;1.00;;;10.30;91.00;;;;;;5017124;28;20833;-73
2022/12/22 05:20:46;;;;;;;2.30;1.30;;;10.30;90.90;;;;;;5018020;28;20902;-74
2022/12/22 05:23:12;;;;;;;2.67;1.10;;;10.30;91.10;;;;;;5017212;28;20502;-72
2022/12/22 05:25:40;;;;;;;1.77;1.00;;;10.30;91.20;;;;;;5017240;28;20452;-73
2022/12/22 05:28:07;;;;;;;2.73;0.90;;;10.30;91.60;;;;;;5017239;28;20444;-74
2022/12/22 05:30:34;;;;;;;2.53;1.07;;;10.30;91.40;;;;;;5016542;28;20452;-74
2022/12/22 05:33:00;;;;;;;2.20;1.00;;;10.40;91.10;;;;;;5016837;28;20444;-74
2022/12/22 05:35:27;;;;;;;2.00;1.13;;;10.50;90.70;;;;;;5016564;28;20448;-74
2022/12/22 05:37:54;;;;;;;2.10;0.87;;;10.60;90.60;;;;;;5016524;28;20530;-74
2022/12/22 05:40:20;;;;;;;2.10;1.00;;;10.50;90.70;;;;;;5016792;28;20444;-74
2022/12/22 05:42:48;;;;;;;2.00;0.87;;;10.60;91.00;;;;;;5016413;28;20868;-74
2022/12/22 05:45:17;;;;;;;2.20;1.30;;;10.50;91.10;;;;;;5016766;28;20440;-74
2022/12/22 05:47:46;;;;;;;4.00;1.83;;;10.50;91.20;;;;;;5016703;28;20518;-74
2022/12/22 05:50:14;;;;;;;2.83;1.13;;;10.40;91.30;;;;;;5016632;28;20483;-74
2022/12/22 05:52:41;;;;;;;1.80;0.97;;;10.40;91.60;;;;;;5016125;28;20980;-74
2022/12/22 05:55:09;;;;;;;2.87;1.13;;;10.30;92.00;;;;;;5016614;28;20448;-74
2022/12/22 05:57:36;;;;;;;3.17;1.03;;;10.40;91.80;;;;;;5016389;28;20480;-74
2022/12/22 06:00:07;;;;;;;2.83;1.17;;;10.40;91.60;;;;;;5016967;28;20456;-74
2022/12/22 06:02:33;;;;;;;2.93;1.40;;;10.40;91.40;;;;;;5016091;28;20480;-74
2022/12/22 06:05:00;;;;;;;2.93;1.47;;;10.30;91.40;;;;;;5016424;28;20449;-74
2022/12/22 06:07:27;;;;;;;2.77;1.30;;;10.30;91.50;;;;;;5016275;28;20441;-74
2022/12/22 06:09:53;;;;;;;2.57;1.40;;;10.30;91.50;;;;;;5016323;28;20444;-74
2022/12/22 06:12:20;;;;;;;1.90;1.10;;;10.20;91.60;;;;;;5015179;28;20468;-74
2022/12/22 06:14:47;;;;;;;2.90;1.80;;;10.20;91.60;;;;;;5016287;28;20502;-74
2022/12/22 06:17:15;;;;;;;3.40;1.20;;;10.20;91.70;;;;;;5016075;28;20452;-74
2022/12/22 06:19:42;;;;;;;2.93;1.50;;;10.20;91.40;;;;;;5015998;28;20488;-69
2022/12/22 06:22:08;;;;;;;2.50;1.30;;;10.20;91.40;;;;;;5015642;28;20468;-74
2022/12/22 06:24:35;;;;;;;3.10;1.33;;;10.30;90.70;;;;;;5016068;28;20444;-74
2022/12/22 06:27:02;;;;;;;3.43;1.20;;;10.30;90.40;;;;;;5015977;28;20448;-74
2022/12/22 06:29:28;;;;;;;2.73;1.33;;;10.30;90.50;;;;;;5015637;28;20945;-74
2022/12/22 06:31:55;;;;;;;5.63;1.50;;;10.30;89.60;;;;;;5015811;28;20880;-74
2022/12/22 06:34:23;;;;;;;2.93;1.60;;;10.30;89.70;;;;;;5015677;28;21000;-74
2022/12/22 06:36:50;;;;;;;2.60;1.30;;;10.30;89.50;;;;;;5015928;28;20448;-74
2022/12/22 06:39:17;;;;;;;6.90;2.00;;;10.30;89.30;;;;;;5015281;28;21032;-73
2022/12/22 06:44:27;;;;;;;3.83;1.80;;;10.30;88.70;;;;;;5015865;28;20480;-73
2022/12/22 06:46:54;;;;;;;3.63;1.60;;;10.40;88.60;;;;;;5015482;28;20448;-72
2022/12/22 06:49:21;;;;;;;3.87;2.10;;;10.40;88.50;;;;;;5015505;28;20444;-74
2022/12/22 06:51:49;;;;;;;3.90;1.67;;;10.40;88.20;;;;;;5015365;28;20465;-73
2022/12/22 06:54:16;;;;;;;3.07;1.53;;;10.50;88.00;;;;;;5015477;28;20453;-72
2022/12/22 06:56:43;;;;;;;4.77;1.80;;;10.50;87.90;;;;;;5014997;28;20823;-72
2022/12/22 06:59:10;;;;;;;2.87;1.40;;;10.60;87.30;;;;;;5014907;28;20480;-73
2022/12/22 07:01:36;;;;;;;2.67;1.60;;;10.60;87.20;;;;;;5014911;28;20664;-72
2022/12/22 07:04:03;;;;;;;6.53;2.37;;;10.60;87.00;;;;;;5015147;28;20456;-72
2022/12/22 07:06:30;;;;;;;10.03;2.20;;;10.70;86.80;;;;;;5015119;28;20444;-71
2022/12/22 07:08:58;;;;;;;3.27;1.30;;;10.80;86.40;;;;;;5015217;28;20444;-71
2022/12/22 07:11:24;;;;;;;4.63;1.93;;;10.90;86.20;;;;;;5019876;28;20487;-72
2022/12/22 07:13:51;;;;;;;3.80;2.30;;;10.90;86.00;;;;;;5025578;28;20475;-73
2022/12/22 07:16:18;;;;;;;4.60;1.63;;;10.90;85.30;;;;;;5029389;28;20452;-73
2022/12/22 07:18:44;;;;;;;5.10;2.10;;;10.90;85.00;;;;;;5026803;28;20545;-74
2022/12/22 07:21:13;;;;;;;2.87;1.60;;;10.90;85.00;;;;;;5015723;28;20472;-73
2022/12/22 07:23:41;;;;;;;5.03;1.87;;;10.80;85.10;;;;;;5014608;28;20440;-73
2022/12/22 07:26:10;;;;;;;3.70;1.53;;;10.90;84.80;;;;;;5014924;28;20464;-73
2022/12/22 07:28:38;;;;;;;6.70;2.43;;;10.80;85.20;;;;;;5014857;28;20444;-74
2022/12/22 07:31:06;;;;;;;5.17;2.50;;;10.90;84.40;;;;;;5014812;28;20464;-73
2022/12/22 07:33:33;;;;;;;3.10;1.80;;;11.00;84.60;;;;;;5014736;28;20904;-74
2022/12/22 07:36:03;;;;;;;4.23;2.50;;;11.10;83.70;;;;;;5014703;28;20498;-73
2022/12/22 07:38:32;;;;;;;2.90;1.80;;;11.10;83.00;;;;;;5014582;28;20574;-73
2022/12/22 07:40:59;;;;;;;2.40;1.47;;;11.10;83.40;;;;;;5014405;28;20465;-74
2022/12/22 07:43:26;;;;;;;3.33;1.70;;;11.10;83.50;;;;;;5014579;28;20464;-73
2022/12/22 07:45:52;;;;;;;3.90;1.53;;;11.10;84.70;;;;;;5014490;28;20476;-73
2022/12/22 07:51:06;;;;;;;3.30;1.40;;;11.00;85.60;;;;;;5015710;28;20472;-74
2022/12/22 07:53:33;;;;;;;3.80;1.90;;;11.00;86.40;;;;;;5015616;28;20444;-74
2022/12/22 07:56:02;;;;;;;5.10;2.03;;;11.00;87.40;;;;;;5015603;28;20532;-73
2022/12/22 07:58:30;;;;;;;3.03;1.47;;;10.90;88.20;;;;;;5014617;28;21079;-73
2022/12/22 08:00:58;;;;;;;3.10;1.77;;;10.90;88.10;;;;;;5014045;28;20970;-73
2022/12/22 08:03:25;;;;;;;6.53;2.27;;;10.80;88.40;;;;;;5014798;28;20413;-73
2022/12/22 08:05:52;;;;;;;2.57;1.40;;;10.70;88.80;;;;;;5014669;28;20448;-74
2022/12/22 08:08:18;;;;;;;4.73;2.00;;;10.70;88.60;;;;;;5014453;28;20471;-73
2022/12/22 08:10:45;;;;;;;5.73;1.47;;;10.60;89.00;;;;;;5014160;28;20480;-73
2022/12/22 08:13:11;;;;;;;3.93;1.60;;;10.70;88.90;;;;;;5014049;28;20968;-73
2022/12/22 08:15:39;;;;;;;5.97;2.53;;;10.70;88.60;;;;;;5013801;28;20937;-73
2022/12/22 08:18:06;;;;;;;2.70;1.40;;;10.60;88.50;;;;;;5014088;28;20449;-72
2022/12/22 08:20:33;;;;;;;6.10;1.83;;;10.60;88.60;;;;;;5013968;28;20498;-73
2022/12/22 08:22:59;;;;;;;2.20;1.60;;;10.70;88.90;;;;;;5014005;28;20498;-72
2022/12/22 08:25:26;;;;;;;4.10;1.70;;;10.60;88.60;;;;;;5013983;28;20448;-73
2022/12/22 08:27:56;;;;;;;7.27;2.63;;;10.60;88.70;;;;;;5013957;28;20444;-74
2022/12/22 08:30:23;;;;;;;5.07;2.30;;;10.60;88.40;;;;;;5013786;28;20449;-73
2022/12/22 08:32:51;;;;;;;3.13;1.93;;;10.60;88.30;;;;;;5013872;28;20449;-73
2022/12/22 08:35:18;;;;;;;4.47;1.70;;;10.60;87.40;;;;;;5013227;28;20445;-73
2022/12/22 08:37:46;;;;;;;4.40;1.70;;;10.60;87.20;;;;;;5013696;28;20475;-73
2022/12/22 08:40:17;;;;;;;3.10;1.80;;;10.60;87.30;;;;;;5013690;28;20531;-73
2022/12/22 08:42:44;;;;;;;6.50;2.23;;;10.60;86.80;;;;;;5013826;28;20551;-73
2022/12/22 08:45:11;;;;;;;3.07;1.50;;;10.60;86.40;;;;;;5013642;28;20464;-73
2022/12/22 08:47:38;;;;;;;4.67;1.67;;;10.60;86.70;;;;;;5013672;28;20502;-73
2022/12/22 08:50:07;;;;;;;3.60;1.70;;;10.70;86.30;;;;;;5014555;28;20440;-74
2022/12/22 08:52:34;;;;;;;3.67;2.00;;;10.90;85.80;;;;;;5013599;28;20468;-73
2022/12/22 08:55:01;;;;;;;3.80;1.90;;;11.10;85.10;;;;;;5013588;28;20444;-73
2022/12/22 08:57:28;;;;;;;2.83;1.40;;;11.10;84.40;;;;;;5014215;28;20452;-73
2022/12/22 08:59:54;;;;;;;3.63;1.37;;;11.40;83.80;;;;;;5013420;28;20880;-74
2022/12/22 09:02:21;;;;;;;3.43;1.70;;;11.50;82.80;;;;;;5013203;28;20893;-74
2022/12/22 09:04:48;;;;;;;4.10;1.83;;;11.50;83.10;;;;;;5013566;28;20543;-74
2022/12/22 09:07:16;;;;;;;2.90;1.43;;;11.50;83.30;;;;;;5013204;28;20860;-74
2022/12/22 09:09:43;;;;;;;3.47;1.70;;;11.60;82.90;;;;;;5013521;28;20456;-74
2022/12/22 09:12:10;;;;;;;3.37;1.50;;;11.60;83.10;;;;;;5013413;28;20476;-73
2022/12/22 09:14:37;;;;;;;4.13;1.57;;;11.70;83.50;;;;;;5013521;28;20449;-73
2022/12/22 09:17:04;;;;;;;6.27;1.90;;;11.80;83.10;;;;;;5013467;28;20444;-73
2022/12/22 09:19:30;;;;;;;4.27;1.87;;;11.70;83.40;;;;;;5013206;28;20484;-74
2022/12/22 09:21:57;;;;;;;4.00;2.13;;;11.50;84.10;;;;;;5013177;28;20468;-73
2022/12/22 09:24:25;;;;;;;3.40;1.50;;;11.60;85.40;;;;;;5013232;28;20459;-73
2022/12/22 09:26:52;;;;;;;3.33;1.83;;;11.40;86.20;;;;;;5012876;28;20452;-73
2022/12/22 09:29:18;;;;;;;4.43;2.00;;;11.30;87.20;;;;;;5013038;28;20452;-74
2022/12/22 09:31:45;;;;;;;6.07;1.97;;;11.20;87.50;;;;;;5012777;28;20973;-73
2022/12/22 09:34:12;;;;;;;4.13;1.67;;;11.00;88.20;;;;;;5013075;28;20457;-73
2022/12/22 09:36:41;;;;;;;5.73;2.27;;;11.00;88.70;;;;;;5013095;28;20456;-74
2022/12/22 09:39:09;;;;;;;4.23;1.93;;;11.00;88.90;;;;;;5013055;28;20829;-74
2022/12/22 09:41:43;;;;;;;4.30;1.70;;;10.90;89.30;;;;;;5012997;28;20500;-73
2022/12/22 09:44:16;;;;;;;4.47;1.80;;;10.90;89.60;;;;;;5012770;28;20860;-74
2022/12/22 09:46:43;;;;;;;3.10;1.80;;;10.80;89.70;;;;;;5014341;28;20491;-73
2022/12/22 09:49:14;;;;;;;2.97;1.80;;;10.90;89.90;;;;;;5016616;28;20863;-74
2022/12/22 09:51:43;;;;;;;3.27;1.50;;;10.80;89.90;;;;;;5016873;28;20467;-73
2022/12/22 09:54:12;;;;;;;2.00;1.13;;;10.70;90.60;;;;;;5016516;28;20456;-74
2022/12/22 09:56:40;;;;;;;4.37;1.17;;;10.60;90.70;;;;;;5016270;28;20448;-74
2022/12/22 09:59:11;;;;;;;2.60;1.67;;;10.40;91.60;;;;;;5016395;28;20488;-74
2022/12/22 10:02:15;;;;;;;4.53;1.70;;;10.40;92.00;;;;;;5016176;28;20487;-74
2022/12/22 10:04:56;;;;;;;3.80;1.53;;;10.40;92.10;;;;;;5007696;28;20492;-73
2022/12/22 10:07:30;;;;;;;2.87;1.70;;;10.50;92.30;;;;;;5015938;28;20898;-73
2022/12/22 10:09:57;;;;;;;4.27;1.63;;;10.50;92.50;;;;;;5016231;28;20428;-73
2022/12/22 10:12:26;;;;;;;2.57;1.37;;;10.40;92.50;;;;;;5016030;28;20472;-74
2022/12/22 10:14:54;;;;;;;4.23;2.03;;;10.40;92.90;;;;;;5016909;28;20507;-74
2022/12/22 10:17:23;;;;;;;4.57;1.40;;;10.40;93.30;;;;;;5016058;28;20452;-74
2022/12/22 10:19:52;;;;;;;2.47;1.40;;;10.30;93.00;;;;;;5015959;28;20480;-74
2022/12/22 10:22:28;;;;;;;3.67;1.40;;;10.30;93.30;;;;;;5015545;28;21035;-74
2022/12/22 10:24:55;;;;;;;2.40;1.47;;;10.40;93.20;;;;;;5016331;28;20874;-74
2022/12/22 10:27:24;;;;;;;2.47;1.33;;;10.40;93.20;;;;;;5015972;28;20456;-74
2022/12/22 10:29:52;;;;;;;3.27;1.80;;;10.40;93.40;;;;;;5015734;28;20444;-74
2022/12/22 10:32:21;;;;;;;2.30;1.20;;;10.40;93.30;;;;;;5015657;28;20495;-74
2022/12/22 10:35:00;;;;;;;3.13;1.60;;;10.50;93.20;;;;;;5015907;28;20461;-74
2022/12/22 10:37:35;;;;;;;2.77;2.17;;;10.60;93.10;;;;;;5016252;28;20809;-74
2022/12/22 10:40:16;;;;;;;2.60;1.20;;;10.60;93.10;;;;;;5015463;28;20484;-74
2022/12/22 10:42:47;;;;;;;3.30;1.30;;;10.60;92.50;;;;;;5015529;28;20472;-74
2022/12/22 10:45:22;;;;;;;2.73;1.53;;;10.70;92.40;;;;;;5015577;28;20503;-74
2022/12/22 10:47:51;;;;;;;4.00;2.53;;;10.70;92.50;;;;;;5015469;28;20510;-73
2022/12/22 10:50:19;;;;;;;4.13;1.33;;;10.80;92.60;;;;;;5015123;28;20942;-74
2022/12/22 10:52:51;;;;;;;3.20;1.40;;;10.90;92.30;;;;;;5015352;28;20460;-73
2022/12/22 10:55:20;;;;;;;2.40;1.67;;;10.90;92.20;;;;;;5015100;28;20516;-74
2022/12/22 10:57:48;;;;;;;4.37;1.77;;;10.90;92.20;;;;;;5015651;28;20452;-74
2022/12/22 11:00:27;;;;;;;2.20;1.20;;;10.90;91.20;;;;;;5015276;28;20539;-73
2022/12/22 11:02:55;;;;;;;2.80;1.20;;;10.80;91.80;;;;;;5024558;28;20464;-73
2022/12/22 11:05:22;;;;;;;4.47;1.57;;;10.80;91.90;;;;;;5020584;28;20449;-73
2022/12/22 11:07:49;;;;;;;3.13;1.13;;;10.90;92.30;;;;;;5014970;28;20870;-73
2022/12/22 11:10:19;;;;;;;2.83;1.10;;;10.80;92.10;;;;;;5014820;28;20868;-72
2022/12/22 11:13:09;;;;;;;2.93;1.40;;;10.90;92.00;;;;;;5014663;28;20826;-73
2022/12/22 11:15:43;;;;;;;4.17;1.33;;;10.80;91.80;;;;;;5015065;28;20433;-73
2022/12/22 11:18:22;;;;;;;4.70;1.57;;;10.90;91.80;;;;;;5015049;28;20428;-73
2022/12/22 11:20:58;;;;;;;2.87;1.20;;;11.10;91.40;;;;;;5014899;28;20541;-73
2022/12/22 11:23:33;;;;;;;2.60;1.20;;;11.20;91.50;;;;;;5015086;28;20502;-73
2022/12/22 11:26:08;;;;;;;2.80;1.20;;;11.40;91.50;;;;;;5015033;28;20486;-72
2022/12/22 11:28:49;;;;;;;2.17;1.17;;;11.60;89.70;;;;;;5015653;28;20816;-72
2022/12/22 11:31:30;;;;;;;2.33;1.00;;;11.70;89.00;;;;;;5014648;28;20464;-73
2022/12/22 11:34:09;;;;;;;2.47;1.10;;;11.70;89.20;;;;;;5014774;28;20429;-73
2022/12/22 11:36:57;;;;;;;2.40;1.07;;;11.60;88.90;;;;;;5014315;28;21024;-72
2022/12/22 11:39:35;;;;;;;2.67;1.57;;;11.60;89.00;;;;;;5014534;28;20518;-73
2022/12/22 11:42:22;;;;;;;2.90;1.20;;;11.60;88.90;;;;;;5014205;28;20981;-72
2022/12/22 11:45:00;;;;;;;2.53;1.10;;;11.50;88.60;;;;;;5014259;28;20830;-73
2022/12/22 11:47:36;;;;;;;2.27;1.13;;;11.60;89.00;;;;;;5014391;28;20479;-72
2022/12/22 11:50:25;;;;;;;2.00;1.10;;;11.60;88.90;;;;;;5014371;28;20429;-72
2022/12/22 11:53:06;;;;;;;1.80;0.90;;;11.70;87.30;;;;;;5014906;28;20491;-73
2022/12/22 11:55:37;;;;;;;1.90;1.10;;;11.90;87.40;;;;;;5014665;28;20861;-74
2022/12/22 11:58:28;;;;;;;1.83;0.97;;;12.10;86.20;;;;;;5014313;28;20428;-74
2022/12/22 12:01:03;;;;;;;2.80;1.00;;;12.30;85.40;;;;;;5014053;28;20493;-74
2022/12/22 12:04:06;;;;;;;2.40;1.40;;;12.70;85.30;;;;;;5014368;28;20437;-74
2022/12/22 12:06:48;;;;;;;1.90;1.00;;;13.70;82.40;;;;;;5001138;28;20941;-74
2022/12/22 12:09:29;;;;;;;2.33;1.00;;;15.20;78.90;;;;;;5013966;28;20483;-74
2022/12/22 12:12:03;;;;;;;3.30;1.30;;;16.00;73.60;;;;;;5013453;28;20468;-73
2022/12/22 12:14:38;;;;;;;3.00;1.00;;;16.40;72.00;;;;;;5014042;28;20466;-74
2022/12/22 12:17:14;;;;;;;1.90;0.90;;;16.20;73.60;;;;;;5014028;28;20432;-74
2022/12/22 12:20:02;;;;;;;2.30;0.93;;;16.10;72.40;;;;;;5013966;28;20472;-73
2022/12/22 12:22:42;;;;;;;2.37;0.90;;;15.80;73.70;;;;;;5013903;28;20810;-74
2022/12/22 12:25:21;;;;;;;1.80;0.87;;;15.90;72.90;;;;;;5013874;28;20864;-74
2022/12/22 12:27:59;;;;;;;1.90;0.90;;;15.90;73.30;;;;;;5013813;28;20443;-74
2022/12/22 12:30:34;;;;;;;1.97;1.10;;;16.80;72.80;;;;;;5013455;28;20972;-74
2022/12/22 12:33:06;;;;;;;2.30;1.00;;;18.20;67.70;;;;;;5013786;28;20483;-74
2022/12/22 12:35:49;;;;;;;1.77;0.77;;;18.80;63.50;;;;;;5014306;28;20439;-74
2022/12/22 12:38:25;;;;;;;4.07;1.27;;;19.00;64.40;;;;;;5013400;28;20922;-74
2022/12/22 12:40:55;;;;;;;2.00;1.00;;;20.20;61.40;;;;;;5013704;28;20487;-74
2022/12/22 12:43:23;;;;;;;1.70;0.73;;;20.70;59.80;;;;;;5013685;28;20487;-74
2022/12/22 12:45:50;;;;;;;1.73;0.90;;;19.40;60.90;;;;;;5013698;28;20452;-74
2022/12/22 12:48:37;;;;;;;3.20;1.20;;;18.10;65.50;;;;;;5013602;28;20449;-74
2022/12/22 12:51:44;;;;;;;2.27;0.90;;;16.70;68.00;;;;;;5013495;28;20464;-74
2022/12/22 12:54:36;;;;;;;2.93;1.03;;;15.40;72.00;;;;;;5014593;28;20563;-74
2022/12/22 12:57:23;;;;;;;2.47;0.80;;;14.40;75.50;;;;;;5014300;28;20441;-73
2022/12/22 12:59:51;;;;;;;1.73;0.90;;;13.70;77.10;;;;;;5013574;28;20469;-73
2022/12/22 13:02:38;;;;;;;2.30;0.90;;;13.40;78.70;;;;;;5013139;28;20484;-73
2022/12/22 13:05:30;;;;;;;2.83;0.93;;;12.90;80.70;;;;;;5013471;28;20441;-73
2022/12/22 13:08:19;;;;;;;1.67;0.80;;;12.60;81.80;;;;;;5013457;28;20432;-74
2022/12/22 13:11:23;;;;;;;1.77;1.10;;;12.40;83.20;;;;;;5013486;28;20464;-73
2022/12/22 13:13:51;;;;;;;2.53;1.00;;;12.30;84.10;;;;;;5013478;28;20441;-72
2022/12/22 13:16:24;;;;;;;3.73;0.83;;;12.60;83.20;;;;;;5013579;28;20452;-73
2022/12/22 13:18:51;;;;;;;2.17;0.83;;;12.90;81.60;;;;;;5014141;28;20448;-74
2022/12/22 13:21:24;;;;;;;1.70;0.90;;;14.00;79.60;;;;;;5014082;28;20484;-73
2022/12/22 13:24:13;;;;;;;2.10;0.80;;;15.00;75.70;;;;;;5017276;28;20437;-73
2022/12/22 13:26:42;;;;;;;2.00;1.07;;;15.90;72.50;;;;;;5017088;28;20428;-73
2022/12/22 13:29:16;;;;;;;2.27;1.80;;;16.20;71.00;;;;;;5017090;28;20444;-74
2022/12/22 13:31:45;;;;;;;1.70;0.80;;;16.30;71.50;;;;;;5017033;28;20533;-73
2022/12/22 13:34:36;;;;;;;2.50;1.07;;;16.90;69.70;;;;;;5016937;28;20856;-74
2022/12/22 13:37:16;;;;;;;2.00;0.80;;;17.00;69.10;;;;;;5016935;28;20433;-73
2022/12/22 13:40:13;;;;;;;2.33;0.90;;;16.70;69.40;;;;;;5016887;28;20432;-73
2022/12/22 13:42:43;;;;;;;3.00;1.00;;;16.20;72.10;;;;;;5016763;28;20514;-72
2022/12/22 13:45:17;;;;;;;4.40;1.60;;;16.70;70.40;;;;;;5016754;28;20452;-73
2022/12/22 13:47:45;;;;;;;3.60;1.30;;;16.50;70.50;;;;;;5016785;28;20428;-73
2022/12/22 13:50:21;;;;;;;2.20;1.10;;;16.00;70.40;;;;;;5016822;28;20444;-73
2022/12/22 13:52:49;;;;;;;1.80;1.07;;;15.50;72.90;;;;;;5016650;28;20879;-72
2022/12/22 13:55:20;;;;;;;3.10;1.63;;;14.90;73.60;;;;;;5016581;28;20506;-74
2022/12/22 13:57:47;;;;;;;10.00;2.60;;;14.50;75.00;;;;;;5016547;28;20487;-73
2022/12/22 14:00:22;;;;;;;2.33;1.40;;;13.90;77.10;;;;;;5016406;28;20899;-72
2022/12/22 14:02:49;;;;;;;2.37;1.00;;;13.80;77.60;;;;;;5016049;28;20464;-73
2022/12/22 14:05:17;;;;;;;4.00;1.43;;;13.70;77.80;;;;;;5016318;28;20440;-73
2022/12/22 14:08:04;;;;;;;2.10;1.10;;;13.80;77.30;;;;;;5016325;28;20516;-72
2022/12/22 14:10:37;;;;;;;2.10;1.00;;;14.00;76.40;;;;;;5020623;28;20981;-74
2022/12/22 14:13:07;;;;;;;5.00;1.50;;;14.00;76.80;;;;;;5021183;28;20428;-74
2022/12/22 14:15:34;;;;;;;2.60;1.20;;;14.00;76.80;;;;;;5016451;28;20941;-74
2022/12/22 14:18:00;;;;;;;3.07;2.03;;;14.50;74.90;;;;;;5016241;28;20451;-73
2022/12/22 14:20:31;;;;;;;3.27;1.23;;;14.50;74.70;;;;;;5015977;28;20492;-74
2022/12/22 14:23:02;;;;;;;2.97;1.90;;;14.40;74.60;;;;;;5016022;28;20483;-73
2022/12/22 14:25:31;;;;;;;5.00;1.70;;;14.40;75.20;;;;;;5016070;28;20495;-73
2022/12/22 14:28:05;;;;;;;2.90;1.20;;;14.00;74.90;;;;;;5016844;28;20448;-74
2022/12/22 14:30:36;;;;;;;5.03;1.63;;;13.70;76.90;;;;;;5016120;28;20962;-74
2022/12/22 14:33:16;;;;;;;3.57;1.50;;;13.40;77.10;;;;;;5014772;28;20913;-73
2022/12/22 14:35:43;;;;;;;3.67;1.70;;;13.00;78.70;;;;;;5015601;28;20910;-72
2022/12/22 14:38:22;;;;;;;2.20;1.30;;;12.80;79.10;;;;;;5015593;28;20448;-72
2022/12/22 14:40:49;;;;;;;4.30;1.70;;;12.60;79.80;;;;;;5016052;28;20488;-73
2022/12/22 14:43:28;;;;;;;4.03;1.37;;;12.40;80.40;;;;;;5016229;28;20472;-73
2022/12/22 14:46:04;;;;;;;2.37;1.30;;;12.40;80.60;;;;;;5031122;28;20437;-73
2022/12/22 14:48:33;;;;;;;4.40;1.83;;;12.30;81.10;;;;;;5031400;28;20436;-73
2022/12/22 14:51:01;;;;;;;3.60;1.90;;;12.10;81.80;;;;;;5032261;28;20460;-74
2022/12/22 14:53:37;;;;;;;3.43;2.43;;;11.80;82.70;;;;;;5015764;28;20449;-73
2022/12/22 14:56:04;;;;;;;3.40;1.73;;;11.80;83.10;;;;;;5015229;28;20428;-72
2022/12/22 14:58:34;;;;;;;2.97;1.67;;;11.80;83.20;;;;;;5015475;28;20453;-73
2022/12/22 15:01:18;;;;;;;3.17;2.03;;;11.70;83.60;;;;;;5015171;28;20488;-73
2022/12/22 15:04:05;;;;;;;3.37;1.70;;;11.60;84.00;;;;;;5015437;28;20486;-72
2022/12/22 15:06:36;;;;;;;3.63;1.97;;;11.60;84.10;;;;;;5015395;28;20920;-74
2022/12/22 15:09:26;;;;;;;4.33;1.57;;;11.50;84.40;;;;;;5015348;28;20639;-74
2022/12/22 15:11:56;;;;;;;3.33;1.70;;;11.40;84.70;;;;;;5010041;28;20481;-74
2022/12/22 15:14:28;;;;;;;4.93;2.40;;;11.30;85.10;;;;;;5014866;28;20987;-73
2022/12/22 15:16:56;;;;;;;3.90;1.80;;;11.30;85.50;;;;;;5014771;28;20968;-73
2022/12/22 15:19:23;;;;;;;3.53;1.80;;;11.30;85.30;;;;;;5015167;28;20440;-74
2022/12/22 15:21:50;;;;;;;4.13;1.73;;;11.30;85.60;;;;;;5014926;28;20535;-74
2022/12/22 15:24:18;;;;;;;3.50;1.87;;;11.30;86.10;;;;;;5016398;28;20502;-73
2022/12/22 15:26:45;;;;;;;2.50;1.60;;;11.20;85.80;;;;;;5015201;28;20456;-74
2022/12/22 15:29:13;;;;;;;2.90;1.50;;;11.10;86.00;;;;;;5015131;28;20483;-74
2022/12/22 15:31:42;;;;;;;6.03;2.60;;;11.10;86.30;;;;;;5014870;28;20507;-72
2022/12/22 15:34:14;;;;;;;3.90;1.93;;;11.10;86.20;;;;;;5015089;28;20444;-73
2022/12/22 15:36:40;;;;;;;3.50;1.77;;;11.10;86.30;;;;;;5015155;28;20472;-72
2022/12/22 15:39:13;;;;;;;3.50;1.50;;;11.00;86.70;;;;;;5014779;28;20445;-73
2022/12/22 15:41:40;;;;;;;4.47;2.60;;;11.10;86.50;;;;;;5014256;28;21033;-73
2022/12/22 15:44:06;;;;;;;2.80;1.83;;;11.30;86.20;;;;;;5014255;28;20937;-73
2022/12/22 15:46:33;;;;;;;3.13;1.60;;;11.20;85.70;;;;;;5014209;28;20937;-73
2022/12/22 15:49:02;;;;;;;3.33;1.77;;;11.00;86.10;;;;;;5014556;28;20448;-72
2022/12/22 15:51:32;;;;;;;4.00;1.73;;;11.00;86.70;;;;;;5014395;28;20464;-73
2022/12/22 15:53:59;;;;;;;2.90;1.70;;;11.00;86.80;;;;;;5015292;28;20510;-73
2022/12/22 15:56:28;;;;;;;3.73;2.30;;;11.00;86.70;;;;;;5014041;28;20945;-72
2022/12/22 15:58:55;;;;;;;4.13;1.80;;;11.00;86.50;;;;;;5015164;28;20507;-74
2022/12/22 16:01:22;;;;;;;3.80;2.10;;;11.10;86.40;;;;;;5013804;28;20990;-74
2022/12/22 16:03:48;;;;;;;3.43;1.77;;;11.20;85.80;;;;;;5014333;28;20528;-73
2022/12/22 16:06:19;;;;;;;5.03;2.53;;;11.00;85.70;;;;;;5014199;28;20448;-72
2022/12/22 16:08:49;;;;;;;3.90;2.03;;;11.10;85.70;;;;;;5014325;28;20490;-73
2022/12/22 16:11:17;;;;;;;4.97;1.80;;;11.10;85.40;;;;;;5014415;28;20464;-74
2022/12/22 16:13:44;;;;;;;3.80;1.90;;;11.10;84.80;;;;;;5014201;28;20507;-73
2022/12/22 16:16:11;;;;;;;3.80;1.87;;;11.20;85.10;;;;;;5014712;28;20460;-73
2022/12/22 16:18:38;;;;;;;4.43;2.17;;;11.20;84.40;;;;;;5014032;28;20547;-74
2022/12/22 16:21:07;;;;;;;4.33;1.93;;;11.00;84.50;;;;;;5013526;28;20997;-74
2022/12/22 16:23:36;;;;;;;3.63;1.83;;;11.00;84.90;;;;;;5014140;28;20507;-74
2022/12/22 16:26:04;;;;;;;4.23;2.00;;;11.00;84.90;;;;;;5013975;28;20523;-74
2022/12/22 16:28:32;;;;;;;6.03;2.10;;;11.00;85.00;;;;;;5013880;28;20527;-74
2022/12/22 16:30:59;;;;;;;4.13;2.10;;;10.90;85.20;;;;;;5013683;28;20508;-73
2022/12/22 16:33:26;;;;;;;5.20;2.40;;;10.80;85.40;;;;;;5013983;28;20457;-74
2022/12/22 16:35:53;;;;;;;3.17;1.70;;;10.70;85.90;;;;;;5013820;28;20483;-74
2022/12/22 16:38:19;;;;;;;4.40;2.20;;;10.70;86.00;;;;;;5013814;28;20453;-73
2022/12/22 16:40:50;;;;;;;4.83;2.20;;;10.60;86.50;;;;;;5013651;28;20471;-72
2022/12/22 16:43:21;;;;;;;3.83;1.60;;;10.60;86.80;;;;;;5013930;28;20433;-74
2022/12/22 16:45:48;;;;;;;3.53;2.30;;;10.60;87.30;;;;;;5014049;28;20425;-73
2022/12/22 16:48:21;;;;;;;4.80;2.70;;;10.60;87.30;;;;;;5013723;28;20448;-74
2022/12/22 16:50:48;;;;;;;5.40;2.43;;;10.60;87.40;;;;;;5013569;28;20472;-73
2022/12/22 16:53:15;;;;;;;6.00;2.70;;;10.50;87.50;;;;;;5013737;28;20868;-73
2022/12/22 16:55:42;;;;;;;4.90;3.07;;;10.60;87.50;;;;;;5013663;28;20460;-73
2022/12/22 16:58:12;;;;;;;4.97;2.77;;;10.60;87.70;;;;;;5017525;28;20448;-73
2022/12/22 17:00:41;;;;;;;4.07;1.80;;;10.50;87.70;;;;;;5017550;28;20502;-73
2022/12/22 17:03:14;;;;;;;10.43;3.17;;;10.40;88.10;;;;;;5017558;28;20443;-74
2022/12/22 17:05:45;;;;;;;5.37;3.27;;;10.50;88.00;;;;;;5017782;28;20491;-73
2022/12/22 17:08:20;;;;;;;3.90;2.40;;;10.50;88.10;;;;;;5017542;28;20451;-74
2022/12/22 17:10:47;;;;;;;7.30;2.90;;;10.50;88.10;;;;;;5017593;28;20474;-74
2022/12/22 17:13:16;;;;;;;7.20;3.40;;;10.50;88.30;;;;;;5017369;28;21031;-74